createdAt,value
2023-02-09T00:01:02.802Z,79.96
2023-02-09T00:03:30.435Z,80.34
2023-02-09T00:05:59.996Z,79.24
2023-02-09T00:08:27.601Z,79.50
2023-02-09T00:10:55.151Z,80.90
2023-02-09T00:13:23.509Z,80.70
2023-02-09T00:15:51.498Z,80.88
2023-02-09T00:18:19.191Z,79.69
2023-02-09T00:20:47.152Z,78.01
2023-02-09T00:23:14.679Z,79.78
2023-02-09T00:25:42.137Z,78.98
2023-02-09T00:28:09.670Z,77.99
2023-02-09T00:30:39.399Z,79.14
2023-02-09T00:33:06.890Z,77.56
2023-02-09T00:35:34.421Z,77.94
2023-02-09T00:38:01.905Z,78.64
2023-02-09T00:40:29.389Z,79.93
2023-02-09T00:42:56.868Z,80.31
2023-02-09T00:45:24.380Z,81.35
2023-02-09T00:47:53.271Z,80.20
2023-02-09T00:50:20.764Z,81.68
2023-02-09T00:52:48.275Z,80.91
2023-02-09T00:55:17.391Z,83.49
2023-02-09T00:57:45.032Z,81.78
2023-02-09T01:00:14.689Z,81.14
2023-02-09T01:02:42.389Z,83.01
2023-02-09T01:05:11.229Z,81.75
2023-02-09T01:07:38.754Z,82.27
2023-02-09T01:10:06.879Z,80.62
2023-02-09T01:12:34.331Z,81.50
2023-02-09T01:15:02.753Z,81.21
2023-02-09T01:17:30.300Z,83.58
2023-02-09T01:19:57.807Z,84.04
2023-02-09T01:22:26.606Z,82.96
2023-02-09T01:24:54.077Z,82.64
2023-02-09T01:27:21.777Z,82.73
2023-02-09T01:29:49.271Z,82.21
2023-02-09T01:32:16.771Z,82.54
2023-02-09T01:34:44.315Z,84.54
2023-02-09T01:37:11.800Z,82.72
2023-02-09T01:39:40.641Z,82.64
2023-02-09T01:42:13.978Z,82.40
2023-02-09T01:45:12.471Z,85.11
2023-02-09T01:47:43.232Z,83.23
2023-02-09T01:50:10.937Z,82.77
2023-02-09T01:52:38.831Z,85.05
2023-02-09T01:55:12.432Z,84.80
2023-02-09T01:57:42.843Z,84.61
2023-02-09T02:00:17.822Z,83.52
2023-02-09T02:02:47.559Z,83.68
2023-02-09T02:05:15.412Z,85.63
2023-02-09T02:07:45.915Z,84.24
2023-02-09T02:10:14.766Z,85.46
2023-02-09T02:12:42.496Z,84.09
2023-02-09T02:15:10.522Z,86.81
2023-02-09T02:17:59.794Z,84.22
2023-02-09T02:20:57.815Z,85.29
2023-02-09T02:23:30.722Z,86.07
2023-02-09T02:26:29.699Z,85.49
2023-02-09T02:29:13.329Z,88.32
2023-02-09T02:31:57.233Z,85.95
2023-02-09T02:34:29.212Z,85.94
2023-02-09T02:37:02.183Z,85.02
2023-02-09T02:39:34.742Z,85.92
2023-02-09T02:42:22.878Z,86.23
2023-02-09T02:44:54.141Z,85.67
2023-02-09T02:47:23.747Z,84.99
2023-02-09T02:49:53.092Z,86.51
2023-02-09T02:52:20.551Z,84.58
2023-02-09T02:54:50.747Z,83.72
2023-02-09T02:57:20.197Z,82.85
2023-02-09T02:59:54.492Z,83.70
2023-02-09T03:02:25.399Z,83.57
2023-02-09T03:04:55.667Z,84.18
2023-02-09T03:07:23.158Z,84.13
2023-02-09T03:09:51.164Z,83.13
2023-02-09T03:12:26.729Z,82.09
2023-02-09T03:15:08.603Z,80.79
2023-02-09T03:17:42.782Z,83.43
2023-02-09T03:20:14.968Z,82.40
2023-02-09T03:22:45.195Z,82.40
2023-02-09T03:25:15.377Z,82.60
2023-02-09T03:27:46.172Z,83.43
2023-02-09T03:30:15.855Z,82.03
2023-02-09T03:32:46.807Z,84.27
2023-02-09T03:35:17.689Z,83.42
2023-02-09T03:37:45.320Z,83.78
2023-02-09T03:40:13.228Z,81.83
2023-02-09T03:42:40.720Z,82.58
2023-02-09T03:45:08.969Z,82.51
2023-02-09T03:47:36.536Z,82.71
2023-02-09T03:50:06.798Z,82.80
2023-02-09T03:52:34.600Z,83.51
2023-02-09T03:55:03.161Z,81.82
2023-02-09T03:57:30.636Z,83.86
2023-02-09T03:59:58.094Z,84.05
2023-02-09T04:02:25.669Z,83.83
2023-02-09T04:04:53.821Z,81.51
2023-02-09T04:07:22.796Z,81.41
2023-02-09T04:09:50.275Z,84.12
2023-02-09T04:12:17.789Z,82.22
2023-02-09T04:14:45.244Z,82.33
2023-02-09T04:17:12.752Z,82.35
2023-02-09T04:19:40.217Z,84.15
2023-02-09T04:22:08.643Z,81.53
2023-02-09T04:24:37.435Z,83.76
2023-02-09T04:27:04.932Z,83.20
2023-02-09T04:29:32.404Z,84.38
2023-02-09T04:31:59.914Z,85.09
2023-02-09T04:34:27.516Z,84.28
2023-02-09T04:36:54.974Z,84.16
2023-02-09T04:39:22.485Z,82.90
2023-02-09T04:41:51.308Z,83.20
2023-02-09T04:44:18.962Z,83.88
2023-02-09T04:46:46.444Z,84.67
2023-02-09T04:49:13.948Z,84.06
2023-02-09T04:51:41.386Z,83.45
2023-02-09T04:54:08.856Z,83.04
2023-02-09T04:56:38.143Z,82.99
2023-02-09T04:59:39.523Z,81.19
2023-02-09T05:02:06.986Z,81.92
2023-02-09T05:04:34.448Z,83.07
2023-02-09T05:07:02.044Z,83.63
2023-02-09T05:09:29.604Z,83.89
2023-02-09T05:11:57.065Z,85.02
2023-02-09T05:14:26.149Z,84.26
2023-02-09T05:16:53.779Z,86.66
2023-02-09T05:19:21.359Z,86.24
2023-02-09T05:21:48.883Z,84.53
2023-02-09T05:24:16.311Z,84.93
2023-02-09T05:26:44.169Z,83.52
2023-02-09T05:29:11.755Z,84.73
2023-02-09T05:31:40.645Z,84.81
2023-02-09T05:34:08.149Z,84.89
2023-02-09T05:36:35.631Z,85.12
2023-02-09T05:39:03.383Z,86.89
2023-02-09T05:41:48.179Z,86.33
2023-02-09T05:44:15.691Z,87.65
2023-02-09T05:46:44.672Z,86.78
2023-02-09T05:49:12.155Z,84.69
2023-02-09T05:51:39.606Z,85.89
2023-02-09T05:54:07.209Z,86.84
2023-02-09T05:56:35.600Z,86.72
2023-02-09T05:59:04.598Z,87.37
2023-02-09T06:01:32.290Z,86.85
2023-02-09T06:04:01.103Z,85.14
2023-02-09T06:06:28.588Z,84.40
2023-02-09T06:08:56.036Z,82.80
2023-02-09T06:11:23.483Z,84.87
2023-02-09T06:13:51.056Z,84.69
2023-02-09T06:16:18.536Z,83.88
2023-02-09T06:18:46.028Z,84.50
2023-02-09T06:21:14.818Z,85.29
2023-02-09T06:23:42.304Z,85.09
2023-02-09T06:26:10.446Z,86.88
2023-02-09T06:28:38.368Z,86.14
2023-02-09T06:31:06.479Z,87.14
2023-02-09T06:33:34.966Z,86.11
2023-02-09T06:36:02.771Z,84.95
2023-02-09T06:38:32.752Z,84.22
2023-02-09T06:41:00.196Z,82.83
2023-02-09T06:43:27.764Z,83.69
2023-02-09T06:45:55.587Z,82.79
2023-02-09T06:48:23.102Z,82.76
2023-02-09T06:50:50.749Z,84.25
2023-02-09T06:53:18.667Z,83.83
2023-02-09T06:55:47.528Z,83.11
2023-02-09T06:58:15.046Z,81.62
2023-02-09T07:00:42.484Z,82.83
2023-02-09T07:03:11.085Z,82.67
2023-02-09T07:05:38.557Z,84.01
2023-02-09T07:08:06.065Z,82.83
2023-02-09T07:10:33.518Z,83.17
2023-02-09T07:13:02.405Z,84.16
2023-02-09T07:15:29.850Z,84.49
2023-02-09T07:17:57.338Z,84.96
2023-02-09T07:20:24.792Z,83.60
2023-02-09T07:22:52.290Z,84.15
2023-02-09T07:25:19.776Z,83.49
2023-02-09T07:27:47.294Z,83.31
2023-02-09T07:30:17.474Z,83.10
2023-02-09T07:32:44.924Z,84.56
2023-02-09T07:35:12.476Z,84.38
2023-02-09T07:37:39.952Z,85.90
2023-02-09T07:40:08.381Z,84.62
2023-02-09T07:42:35.819Z,84.54
2023-02-09T07:45:03.351Z,85.35
2023-02-09T07:47:32.187Z,83.29
2023-02-09T07:49:59.663Z,84.58
2023-02-09T07:52:27.134Z,84.77
2023-02-09T07:54:54.590Z,85.42
2023-02-09T07:57:22.030Z,85.08
2023-02-09T07:59:49.484Z,84.32
2023-02-09T08:02:19.747Z,84.49
2023-02-09T08:04:48.582Z,85.51
2023-02-09T08:07:16.148Z,84.28
2023-02-09T08:09:45.066Z,82.86
2023-02-09T08:12:12.697Z,82.61
2023-02-09T08:14:44.273Z,81.42
2023-02-09T08:17:24.098Z,84.45
2023-02-09T08:19:54.782Z,82.97
2023-02-09T08:22:24.940Z,78.37
2023-02-09T08:24:52.763Z,82.99
2023-02-09T08:27:20.403Z,82.88
2023-02-09T08:29:49.023Z,82.65
2023-02-09T08:32:16.753Z,81.84
2023-02-09T08:34:44.454Z,82.77
2023-02-09T08:37:13.229Z,80.06
2023-02-09T08:39:40.849Z,78.38
2023-02-09T08:42:08.355Z,78.58
2023-02-09T08:44:35.859Z,77.65
2023-02-09T08:47:03.485Z,82.78
2023-02-09T08:49:31.023Z,82.84
2023-02-09T08:51:58.553Z,82.92
2023-02-09T08:54:27.377Z,81.50
2023-02-09T08:56:54.972Z,83.88
2023-02-09T08:59:23.410Z,82.41
2023-02-09T09:01:50.885Z,82.65
2023-02-09T09:04:21.178Z,83.18
2023-02-09T09:06:48.883Z,82.40
2023-02-09T09:09:16.425Z,84.39
2023-02-09T09:11:45.450Z,84.71
2023-02-09T09:14:13.001Z,83.14
2023-02-09T09:16:40.798Z,78.79
2023-02-09T09:19:08.593Z,84.62
2023-02-09T09:21:36.135Z,85.58
2023-02-09T09:24:03.732Z,79.69
2023-02-09T09:26:31.321Z,79.08
2023-02-09T09:29:00.163Z,80.74
2023-02-09T09:31:28.038Z,82.59
2023-02-09T09:33:56.233Z,80.45
2023-02-09T09:36:23.888Z,76.32
2023-02-09T09:38:51.451Z,81.95
2023-02-09T09:41:22.710Z,83.08
2023-02-09T09:43:50.387Z,81.10
2023-02-09T09:46:21.863Z,81.02
2023-02-09T09:48:51.923Z,83.29
2023-02-09T09:51:23.876Z,83.69
2023-02-09T09:53:52.673Z,83.95
2023-02-09T09:56:21.248Z,74.81
2023-02-09T09:58:49.905Z,80.66
2023-02-09T10:01:20.059Z,82.01
2023-02-09T10:03:47.713Z,67.19
2023-02-09T10:06:17.820Z,81.17
2023-02-09T10:08:48.921Z,80.07
2023-02-09T10:11:18.935Z,76.67
2023-02-09T10:13:50.474Z,72.76
2023-02-09T10:16:21.196Z,80.02
2023-02-09T10:18:51.353Z,67.81
2023-02-09T10:21:19.444Z,65.61
2023-02-09T10:23:48.785Z,74.09
2023-02-09T10:26:23.099Z,69.26
2023-02-09T10:28:53.185Z,81.61
2023-02-09T10:31:25.999Z,78.96
2023-02-09T10:33:58.523Z,77.82
2023-02-09T10:36:28.751Z,76.09
2023-02-09T10:39:06.063Z,77.34
2023-02-09T10:41:38.441Z,75.15
2023-02-09T10:44:07.409Z,73.91
2023-02-09T10:46:38.555Z,74.04
2023-02-09T10:49:26.459Z,77.02
2023-02-09T10:52:02.099Z,75.10
2023-02-09T10:54:29.823Z,76.28
2023-02-09T10:56:57.620Z,76.14
2023-02-09T10:59:26.413Z,75.37
2023-02-09T11:01:57.851Z,72.54
2023-02-09T11:04:27.679Z,69.52
2023-02-09T11:06:56.758Z,70.04
2023-02-09T11:09:28.507Z,66.34
2023-02-09T11:11:57.673Z,71.15
2023-02-09T11:14:25.723Z,68.02
2023-02-09T11:17:08.205Z,68.22
2023-02-09T11:20:08.632Z,55.54
2023-02-09T11:22:58.154Z,71.86
2023-02-09T11:25:27.336Z,71.79
2023-02-09T11:28:22.366Z,65.23
2023-02-09T11:31:00.987Z,67.88
2023-02-09T11:33:35.819Z,57.49
2023-02-09T11:36:15.679Z,58.05
2023-02-09T11:38:48.551Z,64.97
2023-02-09T11:41:38.065Z,69.40
2023-02-09T11:44:07.727Z,70.91
2023-02-09T11:46:35.572Z,67.06
2023-02-09T11:49:08.002Z,65.08
2023-02-09T11:51:38.392Z,65.16
2023-02-09T11:54:11.480Z,63.77
2023-02-09T11:56:41.985Z,67.71
2023-02-09T11:59:12.049Z,66.32
2023-02-09T12:01:44.315Z,57.18
2023-02-09T12:04:17.809Z,65.23
2023-02-09T12:06:47.629Z,64.40
2023-02-09T12:09:36.409Z,65.60
2023-02-09T12:12:10.970Z,65.07
2023-02-09T12:15:04.146Z,63.87
2023-02-09T12:17:38.234Z,64.99
2023-02-09T12:20:20.440Z,62.43
2023-02-09T12:22:54.151Z,63.46
2023-02-09T12:25:34.422Z,63.52
2023-02-09T12:28:12.950Z,62.67
2023-02-09T12:31:14.747Z,60.56
2023-02-09T12:34:09.145Z,62.25
2023-02-09T12:36:38.195Z,61.43
2023-02-09T12:39:24.184Z,62.57
2023-02-09T12:42:37.513Z,63.55
2023-02-09T12:45:31.764Z,63.76
2023-02-09T12:48:01.045Z,62.77
2023-02-09T12:50:47.933Z,64.28
2023-02-09T12:53:42.773Z,64.40
2023-02-09T12:56:31.627Z,62.93
2023-02-09T12:59:29.356Z,66.66
2023-02-09T13:02:25.140Z,65.91
2023-02-09T13:04:59.194Z,55.93
2023-02-09T13:07:34.587Z,62.43
2023-02-09T13:10:10.704Z,67.49
2023-02-09T13:12:41.211Z,63.26
2023-02-09T13:15:14.417Z,64.61
2023-02-09T13:17:50.613Z,57.94
2023-02-09T13:20:54.960Z,58.25
2023-02-09T13:23:33.815Z,59.84
2023-02-09T13:26:19.431Z,61.60
2023-02-09T13:28:46.933Z,59.84
2023-02-09T13:31:24.972Z,60.40
2023-02-09T13:33:56.931Z,57.33
2023-02-09T13:36:31.170Z,58.63
2023-02-09T13:38:59.148Z,59.59
2023-02-09T13:41:33.980Z,62.33
2023-02-09T13:44:01.657Z,61.94
2023-02-09T13:46:32.100Z,60.83
2023-02-09T13:49:11.471Z,62.54
2023-02-09T13:51:39.013Z,51.00
2023-02-09T13:54:06.636Z,60.91
2023-02-09T13:56:43.877Z,60.87
2023-02-09T13:59:13.691Z,58.69
2023-02-09T14:01:45.890Z,58.84
2023-02-09T14:04:17.131Z,61.67
2023-02-09T14:06:48.107Z,63.14
2023-02-09T14:09:20.405Z,62.70
2023-02-09T14:11:51.390Z,58.65
2023-02-09T14:14:23.383Z,63.70
2023-02-09T14:17:24.212Z,65.50
2023-02-09T14:19:53.997Z,61.82
2023-02-09T14:22:34.186Z,61.61
2023-02-09T14:25:01.745Z,51.94
2023-02-09T14:27:32.986Z,63.19
2023-02-09T14:30:01.307Z,62.90
2023-02-09T14:32:33.745Z,62.67
2023-02-09T14:35:10.416Z,61.76
2023-02-09T14:37:38.109Z,62.12
2023-02-09T14:40:21.227Z,61.14
2023-02-09T14:43:02.964Z,61.93
2023-02-09T14:45:40.982Z,65.12
2023-02-09T14:48:19.553Z,65.37
2023-02-09T14:50:47.330Z,52.53
2023-02-09T14:53:15.806Z,62.63
2023-02-09T14:55:44.550Z,61.70
2023-02-09T14:58:20.168Z,60.53
2023-02-09T15:00:48.207Z,58.99
2023-02-09T15:03:15.897Z,55.30
2023-02-09T15:05:44.231Z,59.38
2023-02-09T15:08:15.291Z,61.88
2023-02-09T15:10:45.301Z,63.41
2023-02-09T15:13:15.372Z,62.36
2023-02-09T15:15:43.626Z,64.22
2023-02-09T15:18:18.544Z,63.92
2023-02-09T15:20:46.233Z,64.86
2023-02-09T15:23:14.008Z,63.89
2023-02-09T15:25:41.823Z,63.98
2023-02-09T15:28:15.776Z,63.22
2023-02-09T15:30:43.339Z,59.75
2023-02-09T15:33:12.268Z,64.12
2023-02-09T15:35:40.510Z,66.62
2023-02-09T15:38:10.430Z,64.53
2023-02-09T15:40:58.857Z,66.62
2023-02-09T15:43:45.440Z,65.59
2023-02-09T15:46:31.496Z,64.04
2023-02-09T15:48:59.329Z,65.46
2023-02-09T15:51:29.964Z,65.58
2023-02-09T15:53:59.031Z,66.10
2023-02-09T15:56:26.619Z,56.88
2023-02-09T15:58:57.146Z,66.95
2023-02-09T16:01:24.688Z,66.69
2023-02-09T16:03:52.257Z,65.98
2023-02-09T16:06:21.820Z,67.82
2023-02-09T16:08:52.016Z,65.54
2023-02-09T16:11:23.129Z,66.43
2023-02-09T16:13:51.103Z,65.67
2023-02-09T16:16:20.002Z,64.89
2023-02-09T16:18:50.490Z,58.81
2023-02-09T16:21:22.763Z,68.61
2023-02-09T16:23:50.681Z,66.13
2023-02-09T16:26:19.333Z,58.86
2023-02-09T16:28:47.404Z,67.54
2023-02-09T16:31:14.974Z,69.25
2023-02-09T16:33:43.779Z,56.25
2023-02-09T16:36:14.689Z,68.52
2023-02-09T16:38:42.536Z,69.38
2023-02-09T16:41:31.554Z,67.30
2023-02-09T16:43:59.098Z,69.76
2023-02-09T16:46:26.640Z,68.26
2023-02-09T16:48:55.520Z,69.10
2023-02-09T16:51:22.985Z,71.30
2023-02-09T16:53:52.043Z,73.61
2023-02-09T16:56:20.072Z,75.28
2023-02-09T16:58:48.944Z,71.68
2023-02-09T17:01:18.357Z,74.95
2023-02-09T17:03:48.271Z,71.37
2023-02-09T17:06:20.045Z,73.82
2023-02-09T17:08:48.125Z,74.36
2023-02-09T17:11:17.837Z,76.50
2023-02-09T17:13:45.412Z,74.96
2023-02-09T17:16:18.820Z,77.38
2023-02-09T17:18:47.565Z,77.51
2023-02-09T17:21:20.946Z,77.33
2023-02-09T17:23:48.901Z,71.50
2023-02-09T17:26:16.518Z,76.84
2023-02-09T17:28:43.977Z,75.43
2023-02-09T17:31:19.684Z,74.02
2023-02-09T17:33:50.531Z,76.82
2023-02-09T17:36:28.871Z,73.22
2023-02-09T17:38:58.510Z,73.53
2023-02-09T17:41:31.223Z,72.76
2023-02-09T17:44:17.567Z,74.51
2023-02-09T17:46:49.853Z,75.61
2023-02-09T17:49:17.449Z,76.54
2023-02-09T17:51:47.011Z,76.53
2023-02-09T17:54:17.670Z,73.89
2023-02-09T17:56:46.099Z,74.22
2023-02-09T17:59:14.776Z,75.19
2023-02-09T18:01:45.011Z,78.42
2023-02-09T18:04:17.976Z,75.99
2023-02-09T18:06:46.943Z,73.01
2023-02-09T18:09:15.304Z,72.28
2023-02-09T18:11:57.061Z,75.26
2023-02-09T18:14:26.114Z,76.14
2023-02-09T18:16:55.121Z,75.77
2023-02-09T18:19:23.497Z,75.52
2023-02-09T18:21:53.478Z,78.15
2023-02-09T18:24:22.262Z,77.60
2023-02-09T18:26:51.035Z,76.36
2023-02-09T18:29:20.114Z,74.40
2023-02-09T18:31:47.732Z,71.59
2023-02-09T18:34:15.635Z,76.65
2023-02-09T18:36:43.368Z,74.27
2023-02-09T18:39:12.155Z,72.61
2023-02-09T18:41:39.638Z,73.92
2023-02-09T18:44:07.136Z,73.24
2023-02-09T18:46:34.725Z,72.25
2023-02-09T18:49:03.614Z,70.62
2023-02-09T18:51:32.403Z,71.28
2023-02-09T18:54:00.219Z,69.05
2023-02-09T18:56:29.073Z,68.88
2023-02-09T18:58:56.565Z,69.42
2023-02-09T19:01:24.765Z,67.01
2023-02-09T19:03:52.967Z,67.88
2023-02-09T19:06:21.339Z,67.96
2023-02-09T19:08:50.208Z,64.63
2023-02-09T19:11:19.384Z,64.23
2023-02-09T19:14:08.454Z,66.50
2023-02-09T19:16:36.134Z,66.12
2023-02-09T19:19:06.137Z,66.08
2023-02-09T19:21:33.673Z,66.22
2023-02-09T19:24:02.672Z,65.42
2023-02-09T19:26:30.484Z,64.62
2023-02-09T19:28:59.268Z,65.43
2023-02-09T19:31:26.851Z,66.41
2023-02-09T19:33:56.012Z,65.02
2023-02-09T19:36:24.300Z,64.57
2023-02-09T19:38:51.813Z,62.95
2023-02-09T19:41:20.463Z,65.39
2023-02-09T19:43:47.953Z,65.34
2023-02-09T19:46:16.807Z,62.84
2023-02-09T19:48:44.296Z,63.08
2023-02-09T19:51:12.062Z,63.51
2023-02-09T19:53:39.601Z,63.09
2023-02-09T19:56:07.825Z,63.22
2023-02-09T19:58:39.289Z,63.38
2023-02-09T20:01:09.401Z,63.65
2023-02-09T20:03:38.735Z,62.19
2023-02-09T20:06:08.906Z,62.61
2023-02-09T20:08:37.077Z,63.49
2023-02-09T20:11:06.248Z,61.80
2023-02-09T20:13:33.786Z,63.05
2023-02-09T20:16:04.869Z,62.83
2023-02-09T20:18:32.372Z,62.34
2023-02-09T20:21:01.168Z,63.08
2023-02-09T20:23:28.770Z,62.62
2023-02-09T20:25:56.311Z,63.34
2023-02-09T20:28:24.392Z,62.64
2023-02-09T20:30:51.934Z,63.46
2023-02-09T20:33:19.449Z,63.04
2023-02-09T20:35:47.199Z,62.28
2023-02-09T20:38:16.001Z,63.15
2023-02-09T20:40:43.994Z,63.25
2023-02-09T20:43:30.124Z,62.99
2023-02-09T20:46:15.370Z,63.34
2023-02-09T20:48:42.846Z,63.80
2023-02-09T20:51:10.308Z,64.37
2023-02-09T20:53:39.109Z,64.97
2023-02-09T20:56:07.724Z,60.64
2023-02-09T20:58:35.297Z,63.10
2023-02-09T21:01:02.773Z,64.14
2023-02-09T21:03:31.534Z,64.83
2023-02-09T21:05:59.024Z,61.83
2023-02-09T21:08:26.531Z,64.19
2023-02-09T21:10:59.324Z,63.87
2023-02-09T21:13:26.901Z,63.63
2023-02-09T21:15:54.400Z,62.50
2023-02-09T21:18:24.727Z,62.33
2023-02-09T21:20:52.650Z,63.94
2023-02-09T21:23:20.349Z,62.77
2023-02-09T21:25:47.841Z,63.30
2023-02-09T21:28:16.767Z,63.23
2023-02-09T21:30:45.266Z,64.31
2023-02-09T21:33:13.005Z,63.58
2023-02-09T21:35:41.394Z,63.75
2023-02-09T21:38:08.884Z,63.53
2023-02-09T21:40:36.347Z,63.66
2023-02-09T21:43:03.854Z,63.81
2023-02-09T21:45:32.809Z,64.37
2023-02-09T21:48:00.660Z,64.62
2023-02-09T21:50:28.105Z,65.00
2023-02-09T21:52:55.658Z,64.92
2023-02-09T21:55:23.305Z,64.31
2023-02-09T21:57:50.795Z,64.13
2023-02-09T22:00:18.646Z,62.34
2023-02-09T22:02:47.449Z,63.12
2023-02-09T22:05:14.896Z,64.17
2023-02-09T22:07:45.587Z,64.41
2023-02-09T22:10:13.174Z,64.34
2023-02-09T22:12:40.716Z,66.10
2023-02-09T22:15:08.990Z,65.29
2023-02-09T22:17:37.231Z,65.08
2023-02-09T22:20:06.803Z,64.98
2023-02-09T22:22:34.268Z,66.80
2023-02-09T22:25:01.781Z,66.25
2023-02-09T22:27:29.293Z,65.40
2023-02-09T22:29:56.748Z,66.42
2023-02-09T22:32:24.468Z,67.46
2023-02-09T22:34:51.953Z,66.80
2023-02-09T22:37:20.749Z,66.57
2023-02-09T22:39:48.256Z,65.97
2023-02-09T22:42:15.732Z,65.82
2023-02-09T22:44:43.203Z,65.35
2023-02-09T22:47:10.693Z,66.95
2023-02-09T22:49:38.217Z,65.42
2023-02-09T22:52:06.029Z,66.21
2023-02-09T22:54:34.990Z,67.51
2023-02-09T22:57:02.521Z,65.72
2023-02-09T22:59:30.200Z,64.88
2023-02-09T23:01:57.674Z,65.24
2023-02-09T23:04:25.196Z,65.02
2023-02-09T23:06:52.652Z,66.29
2023-02-09T23:09:20.233Z,65.49
2023-02-09T23:11:49.018Z,67.76
2023-02-09T23:14:16.516Z,66.33
2023-02-09T23:16:45.933Z,68.31
2023-02-09T23:19:16.063Z,67.14
2023-02-09T23:21:45.399Z,66.91
2023-02-09T23:24:13.590Z,67.46
2023-02-09T23:26:41.185Z,67.08
2023-02-09T23:29:11.305Z,67.39
2023-02-09T23:31:39.368Z,67.53
2023-02-09T23:34:06.983Z,67.98
2023-02-09T23:36:35.727Z,67.30
2023-02-09T23:39:05.976Z,67.41
2023-02-09T23:41:33.855Z,66.81
2023-02-09T23:44:01.802Z,66.71
2023-02-09T23:46:30.844Z,66.64
2023-02-09T23:48:59.125Z,68.00
2023-02-09T23:51:29.660Z,67.82
2023-02-09T23:53:58.898Z,67.99
2023-02-09T23:56:27.033Z,68.47
2023-02-09T23:58:55.197Z,68.51
